»·PEaware :: UPS424 KLAS-KDEN

UPS424 :: KLAS-KDEN

FLIGHT INFORMATION

Flight Status: Arrived
Operator:
United Parcel Service
More flights by this operator :: More flights under this callsign
Pilot: Ben H. (9170)
Aircraft: BOEING 757-200
(B752)
More flights by this aircraft type
Origin: KLAS McCarran Intl
United States
Destination: KDEN Denver Intl
United States
More flights between these airports :: More routes between these airports
Route: +LAS5 DVC WOLLF TELLR2
File this flight plan on PilotEdge
Remarks:
Altitude:
(Current/Filed)
39,000ft
Speed:
(Current/Filed)
428kts
Departed: 24-Nov-17 02:40 PM
Arrived: 24-Nov-17 04:13 PM
Distance/Time
Traveled:
545nm/1:33
Distance/Time
To Go:
Arrived

Flight Plot

Page will automatically refresh every two minutes.

Flight plan parsing failed; only flown route is shown


Map Options




Map Legend


Flown Route
Filed Route
Departure Airport
Arrival Airport
Navaid (VOR, NDB)
Fix

Horizontal Profiles

Position Reports

Time Latitude Longitude Heading Altitude Ground
Speed
24-Nov-17 14:00 36.098405 -115.160519 113 2153ft 0kts
24-Nov-17 14:01 36.098405 -115.160519 113 2153ft 0kts
24-Nov-17 14:02 36.098405 -115.160519 113 2153ft 0kts
24-Nov-17 14:03 36.098405 -115.160519 113 2153ft 0kts
24-Nov-17 14:04 36.098405 -115.160519 113 2153ft 0kts
24-Nov-17 14:05 36.098405 -115.160519 113 2153ft 0kts
24-Nov-17 14:06 36.098405 -115.160519 113 2152ft 0kts
24-Nov-17 14:07 36.098405 -115.160519 113 2152ft 0kts
24-Nov-17 14:08 36.098405 -115.160519 113 2152ft 0kts
24-Nov-17 14:09 36.098405 -115.160519 113 2152ft 0kts
24-Nov-17 14:10 36.098405 -115.160519 113 2152ft 0kts
24-Nov-17 14:11 36.098405 -115.160519 113 2152ft 0kts
24-Nov-17 14:12 36.098405 -115.160519 113 2152ft 0kts
24-Nov-17 14:13 36.098405 -115.160519 113 2152ft 0kts
24-Nov-17 14:14 36.098405 -115.160519 113 2152ft 0kts
24-Nov-17 14:15 36.098405 -115.160519 113 2152ft 0kts
24-Nov-17 14:16 36.098405 -115.160519 113 2152ft 0kts
24-Nov-17 14:17 36.098405 -115.160519 113 2153ft 0kts
24-Nov-17 14:18 36.098405 -115.160519 113 2153ft 0kts
24-Nov-17 14:19 36.098405 -115.160519 113 2153ft 0kts
24-Nov-17 14:20 36.098405 -115.160519 113 2153ft 0kts
24-Nov-17 14:21 36.098405 -115.160519 113 2152ft 0kts
24-Nov-17 14:22 36.098405 -115.160519 113 2152ft 0kts
24-Nov-17 14:23 36.098405 -115.160519 113 2152ft 0kts
24-Nov-17 14:24 36.098405 -115.160519 113 2152ft 0kts
24-Nov-17 14:25 36.098405 -115.160519 113 2152ft 0kts
24-Nov-17 14:26 36.098405 -115.160519 113 2152ft 0kts
24-Nov-17 14:27 36.098405 -115.160519 113 2152ft 0kts
24-Nov-17 14:28 36.098405 -115.160519 113 2152ft 0kts
24-Nov-17 14:29 36.098405 -115.160519 113 2152ft 0kts
24-Nov-17 14:30 36.098405 -115.160519 113 2152ft 0kts
24-Nov-17 14:31 36.098405 -115.160519 113 2152ft 0kts
24-Nov-17 14:32 36.098405 -115.160519 113 2152ft 0kts
24-Nov-17 14:33 36.097790 -115.159944 211 2152ft 7kts
24-Nov-17 14:34 36.095566 -115.161173 206 2152ft 13kts
24-Nov-17 14:35 36.093283 -115.161573 204 2152ft 8kts
24-Nov-17 14:36 36.089289 -115.163894 204 2152ft 26kts
24-Nov-17 14:37 36.081553 -115.168298 204 2152ft 30kts
24-Nov-17 14:38 36.077644 -115.170500 203 2152ft 0kts
24-Nov-17 14:39 36.077651 -115.170983 328 2153ft 5kts
24-Nov-17 14:40 36.082867 -115.168400 24 2152ft 28kts
24-Nov-17 14:41 36.089360 -115.164742 25 2152ft 25kts
24-Nov-17 14:42 36.098015 -115.159797 24 2153ft 28kts
24-Nov-17 14:43 36.099796 -115.157832 73 2153ft 0kts
24-Nov-17 14:44 36.097905 -115.157455 205 2152ft 35kts
24-Nov-17 14:45 36.064616 -115.178619 214 4382ft 156kts
24-Nov-17 14:46 36.027137 -115.224308 231 5700ft 217kts
24-Nov-17 14:47 35.989058 -115.283416 231 7110ft 224kts
24-Nov-17 14:48 35.950670 -115.342999 231 7135ft 222kts
24-Nov-17 14:49 35.893994 -115.366040 146 7158ft 263kts
24-Nov-17 14:50 35.890591 -115.292866 43 7165ft 263kts
24-Nov-17 14:51 35.932313 -115.220385 66 7138ft 263kts
24-Nov-17 14:52 35.957375 -115.135611 71 7144ft 263kts
24-Nov-17 14:53 35.980443 -115.048229 72 9902ft 274kts
24-Nov-17 14:54 36.004106 -114.957192 72 13086ft 287kts
24-Nov-17 14:55 36.028850 -114.861540 72 15841ft 300kts
24-Nov-17 14:56 36.054474 -114.762103 72 18358ft 312kts
24-Nov-17 14:57 36.081222 -114.657890 72 20726ft 324kts
24-Nov-17 14:58 36.107565 -114.554841 72 22827ft 335kts
24-Nov-17 14:59 36.136344 -114.441814 72 23189ft 369kts
24-Nov-17 15:00 36.166980 -114.320921 72 25347ft 378kts
24-Nov-17 15:01 36.191959 -114.197866 81 27189ft 389kts
24-Nov-17 15:02 36.209165 -114.055786 81 27533ft 442kts
24-Nov-17 15:03 36.227105 -113.904322 81 29318ft 452kts
24-Nov-17 15:04 36.245331 -113.748491 81 30900ft 464kts
24-Nov-17 15:05 36.263772 -113.588932 81 32709ft 468kts
24-Nov-17 15:06 36.281907 -113.430089 81 34818ft 464kts
24-Nov-17 15:07 36.307936 -113.277297 66 36632ft 461kts
24-Nov-17 15:08 36.365606 -113.136244 64 37156ft 459kts
24-Nov-17 15:09 36.419131 -112.992138 65 37156ft 459kts
24-Nov-17 15:10 36.450721 -112.839836 73 37160ft 459kts
24-Nov-17 15:11 36.495200 -112.691750 67 37156ft 459kts
24-Nov-17 15:12 36.545489 -112.545316 66 37156ft 459kts
24-Nov-17 15:13 36.596262 -112.399711 66 37156ft 459kts
24-Nov-17 15:14 36.648448 -112.256534 65 37156ft 459kts
24-Nov-17 15:15 36.699882 -112.111862 66 37156ft 459kts
24-Nov-17 15:16 36.750352 -111.965993 66 37156ft 459kts
24-Nov-17 15:17 36.800491 -111.819942 66 37156ft 459kts
24-Nov-17 15:18 36.850519 -111.673441 66 37156ft 459kts
24-Nov-17 15:19 36.900393 -111.526663 66 37156ft 459kts
24-Nov-17 15:20 36.942716 -111.405131 65 37157ft 459kts
24-Nov-17 15:21 37.002709 -111.239048 65 37156ft 459kts
24-Nov-17 15:22 37.046288 -111.118098 65 37156ft 459kts
24-Nov-17 15:23 37.098376 -110.972932 65 37156ft 459kts
24-Nov-17 15:24 37.158436 -110.804692 65 37156ft 459kts
24-Nov-17 15:25 37.201498 -110.683490 65 37156ft 459kts
24-Nov-17 15:26 37.261225 -110.512123 66 37156ft 459kts
24-Nov-17 15:27 37.302374 -110.389080 66 37156ft 459kts
24-Nov-17 15:28 37.351565 -110.246541 66 37156ft 459kts
24-Nov-17 15:29 37.402515 -110.100081 66 37156ft 459kts
24-Nov-17 15:30 37.453230 -109.953852 66 37156ft 459kts
24-Nov-17 15:31 37.501951 -109.812729 66 37156ft 459kts
24-Nov-17 15:32 37.552567 -109.665406 66 37156ft 459kts
24-Nov-17 15:33 37.603008 -109.517948 65 37156ft 459kts
24-Nov-17 15:34 37.655963 -109.371885 65 37156ft 459kts
24-Nov-17 15:35 37.700100 -109.242893 66 37156ft 459kts
24-Nov-17 15:36 37.750100 -109.094761 66 37156ft 459kts
24-Nov-17 15:37 37.799866 -108.946513 65 37156ft 459kts
24-Nov-17 15:38 37.865364 -108.807743 58 37156ft 459kts
24-Nov-17 15:39 37.931916 -108.671190 58 37156ft 459kts
24-Nov-17 15:40 37.998785 -108.533592 58 37156ft 459kts
24-Nov-17 15:41 38.065831 -108.396553 57 37156ft 459kts
24-Nov-17 15:42 38.125201 -108.276324 58 37156ft 459kts
24-Nov-17 15:43 38.189827 -108.139962 59 37156ft 459kts
24-Nov-17 15:44 38.255255 -108.000851 58 37156ft 459kts
24-Nov-17 15:45 38.321066 -107.862344 58 37156ft 459kts
24-Nov-17 15:46 38.387090 -107.723045 58 37156ft 459kts
24-Nov-17 15:47 38.452532 -107.584091 59 37156ft 459kts
24-Nov-17 15:48 38.516897 -107.443413 59 37156ft 459kts
24-Nov-17 15:49 38.578252 -107.307048 59 37156ft 459kts
24-Nov-17 15:50 38.642276 -107.165888 60 37156ft 459kts
24-Nov-17 15:51 38.705217 -107.024109 61 37156ft 459kts
24-Nov-17 15:52 38.761678 -106.894098 60 37156ft 459kts
24-Nov-17 15:53 38.821064 -106.758454 61 36750ft 431kts
24-Nov-17 15:54 38.879527 -106.625199 58 34666ft 431kts
24-Nov-17 15:55 38.941780 -106.493652 57 32701ft 435kts
24-Nov-17 15:56 39.004403 -106.360338 58 30729ft 438kts
24-Nov-17 15:57 39.062144 -106.233608 59 28869ft 431kts
24-Nov-17 15:58 39.116588 -106.112890 60 27126ft 420kts
24-Nov-17 15:59 39.171352 -105.986457 60 25283ft 407kts
24-Nov-17 16:00 39.225739 -105.861514 61 23474ft 396kts
24-Nov-17 16:01 39.278387 -105.739699 60 21718ft 384kts
24-Nov-17 16:02 39.329609 -105.622543 60 20146ft 371kts
24-Nov-17 16:03 39.380107 -105.507070 60 18977ft 352kts
24-Nov-17 16:04 39.395526 -105.387604 85 16668ft 357kts
24-Nov-17 16:05 39.401879 -105.272685 86 16358ft 318kts
24-Nov-17 16:06 39.406765 -105.168231 86 15018ft 309kts
24-Nov-17 16:07 39.411651 -105.058780 86 13743ft 302kts
24-Nov-17 16:08 39.416456 -104.955145 85 13229ft 266kts
24-Nov-17 16:09 39.424831 -104.863300 83 12349ft 255kts
24-Nov-17 16:10 39.435522 -104.773962 58 11407ft 245kts
24-Nov-17 16:11 39.493764 -104.733703 21 11119ft 245kts
24-Nov-17 16:12 39.555851 -104.697907 23 11019ft 248kts
24-Nov-17 16:13 39.620646 -104.664233 3 9634ft 257kts
24-Nov-17 16:14 39.690662 -104.662512 0 8197ft 232kts
24-Nov-17 16:15 39.750148 -104.661634 0 7052ft 190kts
24-Nov-17 16:16 39.795924 -104.661020 0 6112ft 144kts
24-Nov-17 16:17 39.836317 -104.660416 358 5467ft 147kts
24-Nov-17 16:18 39.860973 -104.661755 260 5442ft 0kts
24-Nov-17 16:19 39.860932 -104.661906 243 5442ft 7kts
24-Nov-17 16:20 39.852685 -104.663401 227 5442ft 18kts

Navigation Log

Ident Type
Flight plan parsing failed, navigation log unavailable